createdAt,value
2018-07-12T00:02:03.237Z,18.80
2018-07-12T00:04:30.487Z,19.63
2018-07-12T00:06:57.810Z,26.53
2018-07-12T00:09:25.072Z,18.97
2018-07-12T00:11:52.620Z,20.13
2018-07-12T00:14:19.888Z,20.73
2018-07-12T00:16:47.135Z,20.20
2018-07-12T00:19:14.377Z,19.20
2018-07-12T00:21:41.695Z,18.50
2018-07-12T00:24:08.929Z,16.77
2018-07-12T00:26:36.195Z,21.53
2018-07-12T00:29:03.506Z,18.13
2018-07-12T00:31:30.832Z,19.60
2018-07-12T00:33:58.096Z,20.07
2018-07-12T00:36:25.391Z,18.27
2018-07-12T00:38:52.913Z,20.23
2018-07-12T00:41:20.168Z,19.90
2018-07-12T00:43:47.402Z,22.03
2018-07-12T00:46:14.686Z,20.23
2018-07-12T00:48:41.917Z,21.63
2018-07-12T00:51:09.146Z,22.27
2018-07-12T00:53:36.431Z,22.80
2018-07-12T00:56:03.690Z,24.80
2018-07-12T00:58:31.731Z,23.17
2018-07-12T01:00:59.232Z,22.90
2018-07-12T01:03:26.484Z,21.20
2018-07-12T01:05:53.763Z,20.57
2018-07-12T01:08:21.014Z,22.83
2018-07-12T01:10:48.264Z,23.37
2018-07-12T01:13:15.556Z,21.47
2018-07-12T01:15:42.841Z,22.17
2018-07-12T01:18:10.202Z,21.33
2018-07-12T01:20:40.521Z,21.40
2018-07-12T01:23:07.855Z,19.83
2018-07-12T01:25:36.758Z,19.77
2018-07-12T01:28:04.066Z,19.27
2018-07-12T01:30:31.350Z,19.57
2018-07-12T01:32:58.580Z,21.37
2018-07-12T01:35:25.860Z,24.57
2018-07-12T01:37:53.114Z,22.93
2018-07-12T01:40:20.351Z,22.90
2018-07-12T01:42:47.635Z,22.23
2018-07-12T01:45:15.049Z,21.27
2018-07-12T01:47:42.329Z,21.13
2018-07-12T01:50:09.578Z,23.83
2018-07-12T01:52:36.895Z,24.07
2018-07-12T01:55:04.141Z,21.87
2018-07-12T01:57:31.436Z,20.83
2018-07-12T01:59:58.669Z,20.37
2018-07-12T02:02:26.001Z,23.13
2018-07-12T02:04:53.259Z,19.07
2018-07-12T02:07:20.614Z,21.53
2018-07-12T02:09:47.904Z,23.13
2018-07-12T02:12:15.181Z,23.60
2018-07-12T02:14:42.416Z,32.33
2018-07-12T02:17:09.896Z,22.80
2018-07-12T02:19:37.184Z,23.30
2018-07-12T02:22:04.421Z,22.27
2018-07-12T02:24:31.962Z,25.63
2018-07-12T02:26:59.207Z,25.03
2018-07-12T02:29:26.608Z,24.47
2018-07-12T02:31:53.881Z,24.83
2018-07-12T02:34:21.330Z,27.00
2018-07-12T02:36:48.636Z,22.73
2018-07-12T02:39:15.922Z,28.17
2018-07-12T02:41:43.205Z,30.17
2018-07-12T02:44:10.455Z,28.47
2018-07-12T02:46:38.025Z,30.07
2018-07-12T02:49:05.275Z,28.63
2018-07-12T02:51:32.564Z,28.23
2018-07-12T02:53:59.845Z,29.27
2018-07-12T02:56:27.107Z,27.47
2018-07-12T02:58:54.396Z,26.73
2018-07-12T03:01:21.969Z,31.13
2018-07-12T03:03:49.211Z,31.73
2018-07-12T03:06:16.495Z,30.90
2018-07-12T03:08:43.738Z,31.97
2018-07-12T03:11:11.956Z,30.63
2018-07-12T03:13:39.280Z,31.53
2018-07-12T03:16:06.533Z,30.40
2018-07-12T03:18:33.780Z,32.03
2018-07-12T03:21:01.625Z,28.13
2018-07-12T03:23:28.911Z,30.07
2018-07-12T03:25:56.481Z,28.53
2018-07-12T03:28:23.717Z,28.17
2018-07-12T03:30:51.111Z,28.00
2018-07-12T03:33:18.631Z,28.57
2018-07-12T03:35:46.042Z,31.10
2018-07-12T03:38:13.328Z,28.53
2018-07-12T03:40:40.727Z,31.97
2018-07-12T03:43:08.176Z,28.73
2018-07-12T03:45:35.746Z,29.27
2018-07-12T03:48:03.074Z,30.07
2018-07-12T03:50:30.338Z,26.73
2018-07-12T03:52:57.613Z,32.57
2018-07-12T03:55:24.903Z,30.60
2018-07-12T03:57:53.210Z,25.93
2018-07-12T04:00:20.443Z,27.90
2018-07-12T04:02:47.723Z,26.13
2018-07-12T04:05:15.038Z,29.30
2018-07-12T04:07:42.570Z,30.73
2018-07-12T04:10:09.842Z,28.57
2018-07-12T04:12:37.109Z,29.50
2018-07-12T04:15:04.362Z,27.80
2018-07-12T04:17:34.706Z,25.73
2018-07-12T04:20:03.269Z,27.53
2018-07-12T04:22:31.778Z,31.00
2018-07-12T04:24:59.047Z,27.00
2018-07-12T04:27:26.472Z,27.10
2018-07-12T04:29:54.825Z,30.70
2018-07-12T04:32:22.194Z,32.30
2018-07-12T04:34:50.051Z,28.70
2018-07-12T04:37:17.418Z,25.87
2018-07-12T04:39:44.818Z,32.53
2018-07-12T04:42:12.086Z,28.83
2018-07-12T04:44:39.342Z,32.83
2018-07-12T04:47:06.773Z,30.17
2018-07-12T04:49:34.046Z,29.27
2018-07-12T04:52:01.630Z,32.57
2018-07-12T04:54:29.588Z,37.03
2018-07-12T04:56:56.857Z,29.07
2018-07-12T04:59:24.112Z,32.73
2018-07-12T05:01:51.389Z,31.37
2018-07-12T05:04:18.660Z,38.93
2018-07-12T05:06:45.970Z,29.73
2018-07-12T05:09:13.278Z,28.10
2018-07-12T05:11:40.641Z,29.00
2018-07-12T05:14:08.659Z,31.00
2018-07-12T05:16:36.156Z,31.87
2018-07-12T05:19:03.402Z,33.93
2018-07-12T05:21:30.767Z,30.87
2018-07-12T05:23:58.040Z,29.97
2018-07-12T05:26:25.347Z,29.33
2018-07-12T05:28:52.651Z,33.03
2018-07-12T05:31:19.906Z,33.67
2018-07-12T05:33:47.373Z,36.37
2018-07-12T05:36:28.693Z,34.13
2018-07-12T05:38:57.147Z,28.67
2018-07-12T05:41:25.445Z,31.67
2018-07-12T05:43:53.820Z,34.57
2018-07-12T05:46:22.196Z,32.33
2018-07-12T05:48:50.728Z,27.50
2018-07-12T05:51:19.190Z,29.73
2018-07-12T05:53:47.635Z,30.07
2018-07-12T05:56:16.037Z,24.03
2018-07-12T05:58:44.391Z,23.10
2018-07-12T06:01:23.974Z,29.63
2018-07-12T06:03:52.344Z,29.37
2018-07-12T06:06:20.965Z,25.03
2018-07-12T06:08:49.324Z,26.80
2018-07-12T06:11:17.752Z,25.43
2018-07-12T06:13:46.121Z,20.53
2018-07-12T06:16:14.476Z,27.07
2018-07-12T06:18:42.844Z,23.47
2018-07-12T06:21:11.234Z,23.47
2018-07-12T06:23:39.648Z,25.17
2018-07-12T06:26:08.109Z,24.33
2018-07-12T06:28:36.491Z,21.70
2018-07-12T06:31:04.818Z,27.40
2018-07-12T06:33:33.252Z,23.47
2018-07-12T06:36:01.786Z,26.17
2018-07-12T06:38:30.199Z,26.33
2018-07-12T06:40:58.548Z,24.10
2018-07-12T06:43:26.939Z,25.43
2018-07-12T06:45:55.358Z,24.97
2018-07-12T06:48:23.823Z,29.30
2018-07-12T06:50:52.223Z,24.60
2018-07-12T06:53:20.624Z,27.90
2018-07-12T06:55:49.166Z,22.70
2018-07-12T06:58:17.555Z,21.83
2018-07-12T07:00:45.941Z,23.97
2018-07-12T07:03:14.304Z,24.07
2018-07-12T07:05:42.734Z,22.40
2018-07-12T07:08:11.128Z,25.83
2018-07-12T07:10:39.467Z,25.40
2018-07-12T07:13:07.967Z,25.77
2018-07-12T07:15:36.376Z,22.50
2018-07-12T07:18:04.920Z,23.20
2018-07-12T07:20:33.365Z,22.57
2018-07-12T07:23:01.792Z,22.67
2018-07-12T07:25:30.286Z,19.60
2018-07-12T07:27:58.658Z,21.77
2018-07-12T07:30:27.906Z,21.40
2018-07-12T07:32:56.286Z,19.70
2018-07-12T07:35:24.664Z,24.07
2018-07-12T07:37:53.015Z,16.10
2018-07-12T07:40:21.401Z,22.87
2018-07-12T07:45:31.248Z,23.77
2018-07-12T07:47:59.565Z,21.37
2018-07-12T07:50:28.662Z,22.33
2018-07-12T07:52:56.928Z,18.33
2018-07-12T07:55:25.228Z,23.50
2018-07-12T07:57:53.491Z,22.87
2018-07-12T08:00:21.827Z,18.23
2018-07-12T08:02:50.168Z,23.20
2018-07-12T08:05:18.438Z,19.23
2018-07-12T08:07:47.216Z,21.67
2018-07-12T08:10:15.624Z,20.83
2018-07-12T08:12:44.257Z,23.97
2018-07-12T08:15:12.710Z,22.57
2018-07-12T08:17:41.024Z,25.43
2018-07-12T08:20:09.345Z,20.97
2018-07-12T08:22:37.695Z,28.47
2018-07-12T08:25:06.007Z,28.13
2018-07-12T08:27:34.353Z,24.07
2018-07-12T08:30:02.641Z,24.20
2018-07-12T08:32:30.937Z,25.47
2018-07-12T08:34:59.338Z,27.67
2018-07-12T08:37:27.587Z,26.20
2018-07-12T08:39:55.910Z,29.00
2018-07-12T08:42:24.346Z,25.37
2018-07-12T08:44:52.629Z,24.90
2018-07-12T08:47:20.966Z,30.23
2018-07-12T08:49:49.273Z,24.40
2018-07-12T08:52:17.587Z,22.70
2018-07-12T08:54:45.978Z,24.07
2018-07-12T08:57:14.217Z,24.33
2018-07-12T08:59:42.486Z,27.00
2018-07-12T09:02:10.810Z,22.13
2018-07-12T09:04:39.089Z,21.87
2018-07-12T09:07:07.645Z,25.73
2018-07-12T09:09:36.035Z,23.07
2018-07-12T09:12:04.646Z,19.90
2018-07-12T09:14:33.036Z,26.07
2018-07-12T09:17:01.343Z,21.33
2018-07-12T09:19:30.039Z,18.33
2018-07-12T09:21:58.355Z,21.30
2018-07-12T09:24:26.661Z,19.87
2018-07-12T09:26:54.965Z,19.93
2018-07-12T09:29:23.271Z,21.43
2018-07-12T09:31:51.593Z,19.70
2018-07-12T09:34:19.866Z,20.70
2018-07-12T09:36:48.453Z,23.93
2018-07-12T09:39:16.737Z,15.43
2018-07-12T09:41:45.017Z,19.53
2018-07-12T09:44:13.335Z,20.40
2018-07-12T09:46:41.626Z,17.90
2018-07-12T09:49:10.046Z,19.70
2018-07-12T09:51:38.327Z,18.77
2018-07-12T09:54:06.667Z,22.83
2018-07-12T09:56:46.467Z,18.40
2018-07-12T09:59:14.764Z,16.57
2018-07-12T10:01:48.543Z,17.10
2018-07-12T10:04:16.882Z,16.13
2018-07-12T10:06:51.275Z,16.27
2018-07-12T10:09:24.849Z,16.37
2018-07-12T10:11:58.461Z,20.80
2018-07-12T10:14:32.065Z,15.00
2018-07-12T10:17:05.658Z,20.17
2018-07-12T10:19:34.114Z,14.80
2018-07-12T10:22:02.453Z,19.40
2018-07-12T10:24:30.790Z,19.07
2018-07-12T10:26:59.186Z,14.90
2018-07-12T10:29:27.479Z,15.23
2018-07-12T10:31:55.797Z,14.17
2018-07-12T10:34:24.112Z,13.20
2018-07-12T10:36:52.482Z,17.13
2018-07-12T10:39:20.922Z,14.00
2018-07-12T10:41:49.192Z,16.10
2018-07-12T10:44:17.516Z,15.90
2018-07-12T10:46:45.905Z,13.03
2018-07-12T10:49:14.261Z,12.73
2018-07-12T10:51:42.591Z,14.40
2018-07-12T10:54:10.917Z,10.43
2018-07-12T10:56:39.236Z,11.50
2018-07-12T10:59:07.561Z,12.40
2018-07-12T11:01:35.853Z,10.47
2018-07-12T11:04:04.177Z,10.20
2018-07-12T11:06:32.524Z,12.07
2018-07-12T11:09:00.910Z,12.53
2018-07-12T11:11:30.843Z,11.07
2018-07-12T11:13:59.136Z,9.90
2018-07-12T11:16:27.445Z,12.30
2018-07-12T11:18:55.794Z,11.13
2018-07-12T11:21:24.131Z,11.17
2018-07-12T11:23:52.813Z,11.43
2018-07-12T11:26:21.174Z,10.40
2018-07-12T11:28:49.436Z,8.23
2018-07-12T11:31:17.777Z,7.60
2018-07-12T11:33:47.078Z,10.40
2018-07-12T11:36:15.431Z,10.80
2018-07-12T11:38:44.525Z,9.40
2018-07-12T11:41:13.170Z,8.60
2018-07-12T11:43:41.756Z,12.47
2018-07-12T11:46:11.427Z,8.77
2018-07-12T11:48:40.752Z,7.40
2018-07-12T11:51:09.212Z,10.57
2018-07-12T11:53:37.530Z,12.60
2018-07-12T11:56:05.791Z,40.03
2018-07-12T11:58:34.116Z,10.73
2018-07-12T12:01:02.741Z,7.73
2018-07-12T12:03:31.407Z,30.93
2018-07-12T12:05:59.725Z,9.33
2018-07-12T12:08:28.173Z,10.07
2018-07-12T12:10:56.491Z,8.90
2018-07-12T12:13:24.840Z,10.53
2018-07-12T12:15:53.100Z,7.17
2018-07-12T12:18:21.434Z,7.43
2018-07-12T12:20:49.725Z,7.20
2018-07-12T12:23:18.067Z,6.47
2018-07-12T12:25:46.397Z,7.97
2018-07-12T12:28:14.659Z,8.73
2018-07-12T12:30:42.929Z,9.63
2018-07-12T12:33:11.290Z,7.63
2018-07-12T12:35:39.616Z,7.90
2018-07-12T12:38:07.876Z,9.93
2018-07-12T12:40:36.195Z,6.47
2018-07-12T12:43:04.580Z,7.37
2018-07-12T12:45:32.924Z,6.10
2018-07-12T12:48:01.468Z,7.47
2018-07-12T12:50:29.807Z,7.00
2018-07-12T12:52:58.070Z,6.13
2018-07-12T12:55:26.376Z,6.50
2018-07-12T12:57:54.708Z,7.87
2018-07-12T13:00:22.977Z,6.73
2018-07-12T13:02:51.301Z,8.90
2018-07-12T13:05:19.586Z,9.77
2018-07-12T13:07:47.829Z,5.30
2018-07-12T13:10:16.170Z,7.43
2018-07-12T13:12:44.493Z,9.60
2018-07-12T13:15:12.951Z,6.00
2018-07-12T13:17:41.346Z,6.93
2018-07-12T13:20:09.576Z,8.47
2018-07-12T13:22:37.856Z,7.13
2018-07-12T13:25:06.613Z,6.53
2018-07-12T13:27:35.918Z,9.03
2018-07-12T13:30:04.199Z,6.33
2018-07-12T13:32:32.598Z,11.30
2018-07-12T13:35:00.969Z,15.30
2018-07-12T13:37:29.222Z,10.40
2018-07-12T13:39:57.466Z,8.33
2018-07-12T13:42:25.793Z,12.13
2018-07-12T13:44:54.167Z,9.80
2018-07-12T13:47:22.563Z,13.63
2018-07-12T13:49:50.863Z,10.93
2018-07-12T13:52:19.460Z,11.23
2018-07-12T13:54:47.717Z,13.50
2018-07-12T13:57:16.026Z,11.43
2018-07-12T13:59:44.315Z,8.97
2018-07-12T14:02:12.980Z,10.57
2018-07-12T14:04:41.274Z,9.57
2018-07-12T14:07:09.588Z,8.37
2018-07-12T14:09:37.919Z,7.10
2018-07-12T14:12:06.316Z,7.33
2018-07-12T14:14:34.617Z,10.93
2018-07-12T14:17:02.951Z,5.47
2018-07-12T14:19:31.329Z,7.63
2018-07-12T14:21:59.649Z,7.33
2018-07-12T14:24:27.950Z,5.23
2018-07-12T14:26:56.267Z,6.27
2018-07-12T14:29:24.517Z,5.23
2018-07-12T14:31:52.832Z,4.97
2018-07-12T14:34:21.139Z,5.00
2018-07-12T14:36:49.506Z,5.67
2018-07-12T14:39:17.866Z,5.63
2018-07-12T14:41:46.228Z,6.33
2018-07-12T14:44:14.529Z,4.87
2018-07-12T14:46:42.839Z,5.10
2018-07-12T14:49:11.236Z,6.13
2018-07-12T14:51:39.482Z,4.97
2018-07-12T14:54:07.818Z,8.60
2018-07-12T14:56:36.100Z,6.40
2018-07-12T14:59:04.696Z,3.83
2018-07-12T15:01:33.208Z,15.17
2018-07-12T15:04:01.718Z,6.77
2018-07-12T15:06:30.065Z,8.03
2018-07-12T15:08:58.355Z,5.93
2018-07-12T15:11:26.669Z,4.43
2018-07-12T15:13:54.951Z,4.07
2018-07-12T15:16:23.208Z,11.47
2018-07-12T15:18:51.512Z,4.43
2018-07-12T15:21:19.787Z,4.90
2018-07-12T15:23:48.240Z,5.07
2018-07-12T15:26:16.911Z,3.20
2018-07-12T15:28:45.161Z,4.00
2018-07-12T15:31:13.605Z,4.47
2018-07-12T15:33:42.080Z,4.27
2018-07-12T15:36:10.396Z,4.70
2018-07-12T15:38:38.687Z,3.60
2018-07-12T15:41:07.411Z,7.70
2018-07-12T15:43:35.816Z,2.93
2018-07-12T15:46:04.188Z,5.73
2018-07-12T15:48:33.771Z,5.70
2018-07-12T15:51:03.292Z,4.20
2018-07-12T15:53:31.671Z,5.13
2018-07-12T15:56:02.993Z,4.87
2018-07-12T15:58:31.431Z,5.70
2018-07-12T16:00:59.843Z,4.77
2018-07-12T16:03:28.176Z,6.33
2018-07-12T16:05:56.482Z,5.97
2018-07-12T16:08:25.544Z,4.27
2018-07-12T16:10:53.920Z,3.37
2018-07-12T16:13:22.305Z,4.03
2018-07-12T16:15:50.638Z,2.80
2018-07-12T16:18:20.206Z,4.63
2018-07-12T16:20:48.480Z,4.37
2018-07-12T16:23:17.829Z,4.20
2018-07-12T16:25:46.139Z,4.50
2018-07-12T16:28:14.419Z,4.17
2018-07-12T16:30:43.137Z,4.97
2018-07-12T16:33:11.431Z,5.50
2018-07-12T16:35:39.764Z,3.77
2018-07-12T16:38:08.066Z,3.10
2018-07-12T16:40:36.484Z,4.87
2018-07-12T16:43:04.799Z,5.03
2018-07-12T16:45:33.130Z,5.23
2018-07-12T16:48:01.467Z,5.50
2018-07-12T16:50:29.834Z,4.50
2018-07-12T16:52:58.236Z,4.37
2018-07-12T16:55:26.639Z,4.07
2018-07-12T16:57:54.895Z,5.37
2018-07-12T17:00:23.221Z,4.63
2018-07-12T17:02:51.550Z,4.33
2018-07-12T17:05:20.054Z,6.57
2018-07-12T17:07:48.342Z,5.70
2018-07-12T17:10:16.596Z,4.63
2018-07-12T17:12:44.939Z,4.90
2018-07-12T17:15:13.191Z,4.90
2018-07-12T17:17:41.680Z,6.27
2018-07-12T17:20:10.005Z,5.43
2018-07-12T17:22:38.284Z,3.57
2018-07-12T17:25:06.858Z,7.37
2018-07-12T17:27:35.125Z,5.33
2018-07-12T17:30:03.428Z,4.07
2018-07-12T17:32:31.689Z,5.07
2018-07-12T17:35:00.047Z,5.53
2018-07-12T17:37:28.330Z,3.50
2018-07-12T17:39:56.629Z,4.23
2018-07-12T17:42:24.871Z,7.57
2018-07-12T17:44:53.143Z,6.03
2018-07-12T17:47:21.457Z,6.00
2018-07-12T17:49:49.708Z,4.53
2018-07-12T17:52:18.051Z,6.50
2018-07-12T17:54:46.499Z,6.70
2018-07-12T17:57:14.865Z,7.27
2018-07-12T17:59:43.144Z,5.87
2018-07-12T18:02:11.521Z,5.60
2018-07-12T18:04:40.032Z,4.87
2018-07-12T18:07:08.300Z,7.03
2018-07-12T18:09:36.755Z,4.77
2018-07-12T18:12:05.042Z,6.10
2018-07-12T18:14:33.371Z,5.53
2018-07-12T18:17:01.949Z,9.97
2018-07-12T18:19:30.319Z,5.57
2018-07-12T18:21:58.675Z,7.37
2018-07-12T18:24:26.914Z,6.87
2018-07-12T18:26:55.441Z,6.47
2018-07-12T18:29:23.796Z,9.37
2018-07-12T18:31:52.097Z,7.40
2018-07-12T18:34:20.367Z,7.43
2018-07-12T18:36:48.674Z,6.40
2018-07-12T18:39:16.960Z,4.77
2018-07-12T18:41:45.360Z,5.20
2018-07-12T18:44:13.641Z,6.87
2018-07-12T18:46:41.909Z,6.50
2018-07-12T18:49:10.279Z,4.13
2018-07-12T18:51:38.702Z,7.63
2018-07-12T18:54:07.044Z,7.37
2018-07-12T18:56:36.749Z,4.50
2018-07-12T18:59:05.673Z,7.00
2018-07-12T19:01:40.135Z,7.10
2018-07-12T19:04:08.525Z,4.77
2018-07-12T19:06:36.882Z,6.97
2018-07-12T19:09:07.329Z,5.80
2018-07-12T19:11:36.035Z,5.27
2018-07-12T19:14:04.426Z,6.00
2018-07-12T19:16:32.809Z,6.07
2018-07-12T19:19:01.119Z,8.23
2018-07-12T19:21:29.398Z,9.73
2018-07-12T19:23:57.788Z,8.40
2018-07-12T19:26:26.584Z,7.60
2018-07-12T19:28:55.150Z,5.23
2018-07-12T19:31:23.428Z,7.27
2018-07-12T19:33:51.843Z,5.17
2018-07-12T19:36:20.189Z,11.60
2018-07-12T19:38:48.592Z,6.43
2018-07-12T19:41:17.182Z,9.67
2018-07-12T19:43:45.507Z,6.33
2018-07-12T19:46:13.869Z,6.17
2018-07-12T19:48:42.153Z,11.23
2018-07-12T19:51:10.436Z,9.63
2018-07-12T19:53:38.733Z,10.10
2018-07-12T19:56:07.204Z,7.13
2018-07-12T19:58:35.508Z,8.87
2018-07-12T20:01:04.101Z,7.60
2018-07-12T20:03:32.414Z,8.30
2018-07-12T20:06:00.711Z,10.67
2018-07-12T20:08:29.003Z,6.37
2018-07-12T20:10:58.406Z,3.80
2018-07-12T20:13:27.986Z,7.97
2018-07-12T20:15:56.586Z,7.43
2018-07-12T20:18:25.999Z,8.30
2018-07-12T20:20:54.292Z,6.17
2018-07-12T20:23:24.915Z,10.53
2018-07-12T20:25:53.268Z,7.53
2018-07-12T20:28:21.728Z,6.13
2018-07-12T20:30:50.252Z,7.30
2018-07-12T20:33:18.870Z,6.77
2018-07-12T20:35:47.113Z,11.00
2018-07-12T20:38:15.372Z,7.60
2018-07-12T20:40:43.863Z,7.73
2018-07-12T20:43:16.666Z,9.13
2018-07-12T20:45:45.288Z,9.90
2018-07-12T20:48:13.758Z,7.80
2018-07-12T20:50:44.954Z,9.37
2018-07-12T20:53:13.425Z,8.20
2018-07-12T20:55:41.813Z,10.03
2018-07-12T20:58:10.306Z,8.47
2018-07-12T21:00:38.580Z,7.40
2018-07-12T21:03:07.003Z,8.57
2018-07-12T21:05:35.344Z,10.27
2018-07-12T21:08:03.650Z,8.43
2018-07-12T21:10:31.981Z,7.90
2018-07-12T21:13:00.240Z,12.13
2018-07-12T21:15:31.311Z,12.40
2018-07-12T21:18:01.625Z,18.20
2018-07-12T21:20:29.867Z,17.23
2018-07-12T21:22:58.157Z,13.73
2018-07-12T21:25:26.520Z,14.27
2018-07-12T21:27:54.783Z,16.13
2018-07-12T21:30:23.095Z,19.20
2018-07-12T21:32:51.382Z,15.13
2018-07-12T21:35:19.671Z,16.03
2018-07-12T21:37:47.929Z,21.70
2018-07-12T21:40:18.557Z,19.83
2018-07-12T21:42:46.854Z,13.90
2018-07-12T21:45:15.108Z,16.13
2018-07-12T21:47:43.494Z,16.63
2018-07-12T21:50:11.734Z,16.37
2018-07-12T21:52:40.043Z,17.43
2018-07-12T21:55:08.395Z,16.63
2018-07-12T21:57:36.691Z,12.53
2018-07-12T22:00:07.646Z,19.33
2018-07-12T22:02:35.936Z,13.23
2018-07-12T22:05:04.253Z,11.43
2018-07-12T22:08:10.161Z,12.03
2018-07-12T22:10:38.440Z,16.00
2018-07-12T22:13:06.856Z,15.47
2018-07-12T22:15:35.329Z,14.60
2018-07-12T22:18:03.619Z,15.97
2018-07-12T22:20:32.084Z,16.80
2018-07-12T22:23:04.220Z,17.23
2018-07-12T22:25:33.042Z,14.43
2018-07-12T22:28:01.301Z,11.67
2018-07-12T22:30:30.082Z,13.20
2018-07-12T22:32:59.259Z,15.13
2018-07-12T22:35:27.681Z,19.33
2018-07-12T22:37:56.428Z,15.87
2018-07-12T22:40:24.687Z,11.73
2018-07-12T22:42:53.020Z,14.97
2018-07-12T22:45:21.444Z,15.40
2018-07-12T22:47:49.820Z,16.47
2018-07-12T22:50:18.241Z,14.70
2018-07-12T22:52:46.539Z,15.77
2018-07-12T22:55:14.775Z,14.70
2018-07-12T22:57:43.059Z,17.83
2018-07-12T23:00:11.370Z,17.03
2018-07-12T23:02:40.197Z,21.50
2018-07-12T23:05:08.731Z,16.47
2018-07-12T23:07:36.985Z,15.40
2018-07-12T23:10:05.436Z,17.93
2018-07-12T23:12:33.689Z,21.53
2018-07-12T23:15:02.049Z,17.67
2018-07-12T23:17:30.478Z,21.23
2018-07-12T23:19:58.719Z,14.43
2018-07-12T23:22:26.997Z,16.13
2018-07-12T23:24:55.279Z,17.67
2018-07-12T23:27:23.684Z,23.90
2018-07-12T23:29:51.946Z,19.00
2018-07-12T23:32:20.269Z,21.30
2018-07-12T23:34:48.640Z,17.33
2018-07-12T23:37:16.925Z,18.17
2018-07-12T23:39:45.336Z,17.00
2018-07-12T23:42:13.589Z,19.47
2018-07-12T23:44:41.940Z,24.87
2018-07-12T23:47:10.232Z,21.43
2018-07-12T23:49:38.517Z,19.20
2018-07-12T23:52:07.044Z,21.63
2018-07-12T23:54:35.301Z,19.53
2018-07-12T23:57:03.578Z,24.27
2018-07-12T23:59:31.879Z,27.40
